Hlavní strana
METAR-TAF:

METAR-TAF

Letiště :

Ouargla, Alžírsko

zeměpisná šířka: 31-55N, zeměpisná délka: 005-24E, výška: 141 m

Aktuální stav počasí

Zpráva byla vytvořena před 43 minutami, v 05:00 UTC
Bezvětří
Teplota 7°C
Vlhkost vzduchu 61%
Tlak 1022 hPa
Viditelnost 10 km a více
Žádná oblačnost pod 1500 m, nevyskytují se cumulonimby.

METAR: DAUU 250500Z 00000KT CAVOK 07/00 Q1022

Čas: 06:43 (05:43 UTC)

Předpověď počasí

Zpráva byla vytvořena před 3 hodinami a 43 minutami, v 02:00 UTC
Předpověď platná od 25 v 03 UTC do 25 v 12 UTC
vítr z různých směrů 2 kt
Viditelnost 10 km a více
Žádná oblačnost pod 1500 m, nevyskytují se cumulonimby.

TAF: DAUU 250200Z 2503/2512 VRB02KT CAVOK

Stav a předpovědi počasí z více než 4 000 letišť (zprávy METAR a TAF).

Červené a žluté tečky na mapě představují dostupné meteorologické stanice.

Když kurzor umístíte na tečku, zobrazí se název stanice.

Pak kliknutím zobrazíte stav a předpověď počasí.

Chcete-li změnit mapu, kliknutím na zelené tlačítko se znaménkem +mapu přiblížíte, kliknutím na zelené tlačítko se znaménkem – mapu oddálíte a kliknutím na zelené šipky přejdete na sousední mapy.


METAR-TAF: